Aviation Digital Data Service (ADDS)

Output produced by METARs form (0841 UTC 27 September 2016)
found at http://aviationweather.gov/adds/metars/
 
KJST 270538Z 2706/2806 28009KT P6SM BKN012 OVC035 
     FM270800 26006KT 3SM BR OVC007 
     FM271500 24011G17KT P6SM SKC